Etusivu
METAR-TAF:

METAR-TAF

Lentoasemat :

Kuusamo, Suomi

Kuusamon lentoasema

Leveyspiiri: 65-58N, Pituuspiiri: 029-11E, korkeus merenpinnasta: 262 m

Tämänhetkinen sää

Tämä raportti tehtiin 18 minuuttia sitten, kello 06.20 UTC
Tuuli 6 kn pohjoisesta, vaihdellen luoteen ja koillisen välillä
Lämpötila 7°C
Kosteus 93%
Ilmanpaine 1011 hPa
Näkyvyys 10 km tai enemmän
Pilvistä 700 ft:n korkeudessa

METAR: EFKS 240620Z AUTO 01006KT 320V050 9999 OVC007 07/06 Q1011

Aika: 09:38 (06:38 UTC)

Sääennuste

Tämä raportti tehtiin 1 tunti ja 0 minuuttia sitten, kello 05.38 UTC
Ennuste voimassa 24. päivästä klo 06 UTC - 24. päivään klo 13 UTC
Tuuli 6 kn pohjoisesta/koillisesta
Näkyvyys 10 km tai enemmän
Hajonneita pilviä 1000 ft:n korkeudessa
Ajoittain
24. päivästä klo 06 UTC - 24. päivään klo 08 UTC
Näkyvyys: 7000 m
Hajonneita pilviä 800 ft:n korkeudessa

TAF: EFKS 240538Z 2406/2413 02006KT 9999 BKN010 TEMPO 2406/2408 7000 BKN008

Säähavainnot ja -ennusteet yli 4000 lentoasemalta (METAR- ja TAF-raportit).

Käytössä olevat sääasemat on merkitty karttaan keltaisilla ja punaisilla pisteillä.

Aseta hiiri pisteen päälle nähdäksesi sääaseman nimen.

Klikkaa sitten nähdäksesi säähavainnot ja -ennusteet.

Kartan vaihtaminen: klikkaa mustalla rastilla varustettuja vihreitä pisteitä, niin voit zoomata sisään; viivalla varustettua vihreää pistettä, niin voit zoomata ulos tai vihreitä nuolia, niin pääset viereisille kartoille.


METAR-TAF: